createdAt,value
2022-09-02T00:02:12.888Z,2.13
2022-09-02T00:04:39.252Z,2.22
2022-09-02T00:07:05.598Z,2.10
2022-09-02T00:09:31.904Z,2.10
2022-09-02T00:11:58.155Z,1.80
2022-09-02T00:14:29.553Z,1.90
2022-09-02T00:16:56.403Z,2.17
2022-09-02T00:19:24.260Z,1.80
2022-09-02T00:21:53.841Z,2.17
2022-09-02T00:24:20.567Z,1.98
2022-09-02T00:26:46.895Z,2.08
2022-09-02T00:29:14.520Z,2.17
2022-09-02T00:31:42.743Z,2.42
2022-09-02T00:34:09.910Z,2.28
2022-09-02T00:36:36.322Z,2.50
2022-09-02T00:39:03.102Z,2.65
2022-09-02T00:41:29.412Z,2.10
2022-09-02T00:44:03.784Z,1.83
2022-09-02T00:46:31.375Z,2.20
2022-09-02T00:48:57.701Z,1.80
2022-09-02T00:51:24.485Z,2.00
2022-09-02T00:53:50.920Z,1.88
2022-09-02T00:56:20.420Z,2.03
2022-09-02T00:58:47.064Z,1.83
2022-09-02T01:01:13.882Z,1.85
2022-09-02T01:03:41.642Z,1.95
2022-09-02T01:06:08.300Z,2.00
2022-09-02T01:08:36.506Z,1.73
2022-09-02T01:11:06.300Z,2.08
2022-09-02T01:13:39.325Z,1.67
2022-09-02T01:16:24.576Z,1.70
2022-09-02T01:18:53.021Z,1.80
2022-09-02T01:21:19.675Z,1.52
2022-09-02T01:23:46.705Z,1.73
2022-09-02T01:26:12.982Z,1.80
2022-09-02T01:28:39.304Z,1.75
2022-09-02T01:31:05.755Z,1.67
2022-09-02T01:33:32.277Z,1.63
2022-09-02T01:35:58.735Z,1.55
2022-09-02T01:38:25.598Z,1.50
2022-09-02T01:40:52.624Z,1.50
2022-09-02T01:43:20.709Z,1.60
2022-09-02T01:45:48.126Z,2.05
2022-09-02T01:48:14.504Z,1.70
2022-09-02T01:50:52.886Z,1.77
2022-09-02T01:53:19.303Z,1.52
2022-09-02T01:55:45.746Z,1.55
2022-09-02T01:58:12.055Z,1.70
2022-09-02T02:00:38.411Z,1.70
2022-09-02T02:03:06.095Z,1.60
2022-09-02T02:05:33.347Z,1.90
2022-09-02T02:07:59.686Z,1.70
2022-09-02T02:10:26.116Z,1.40
2022-09-02T02:12:52.375Z,1.52
2022-09-02T02:15:19.741Z,1.80
2022-09-02T02:17:48.765Z,1.42
2022-09-02T02:20:16.153Z,1.50
2022-09-02T02:22:43.158Z,1.52
2022-09-02T02:25:09.819Z,1.48
2022-09-02T02:27:36.110Z,1.88
2022-09-02T02:30:04.860Z,1.60
2022-09-02T02:32:32.470Z,1.65
2022-09-02T02:34:59.071Z,1.52
2022-09-02T02:37:25.805Z,1.70
2022-09-02T02:39:52.400Z,1.60
2022-09-02T02:42:18.686Z,1.48
2022-09-02T02:44:44.977Z,1.60
2022-09-02T02:47:11.304Z,1.67
2022-09-02T02:49:38.237Z,1.58
2022-09-02T02:52:04.747Z,1.50
2022-09-02T02:54:35.299Z,1.88
2022-09-02T02:57:01.710Z,1.50
2022-09-02T02:59:30.673Z,1.80
2022-09-02T03:01:56.996Z,1.70
2022-09-02T03:04:23.392Z,1.80
2022-09-02T03:06:50.916Z,1.67
2022-09-02T03:09:17.467Z,1.60
2022-09-02T03:11:43.719Z,1.48
2022-09-02T03:14:09.970Z,1.60
2022-09-02T03:16:36.310Z,1.50
2022-09-02T03:19:02.697Z,1.80
2022-09-02T03:21:30.050Z,1.63
2022-09-02T03:24:05.430Z,1.65
2022-09-02T03:26:31.814Z,1.30
2022-09-02T03:28:58.221Z,1.70
2022-09-02T03:31:25.754Z,1.60
2022-09-02T03:33:52.342Z,1.70
2022-09-02T03:36:23.406Z,1.85
2022-09-02T03:38:49.667Z,1.80
2022-09-02T03:41:16.024Z,1.60
2022-09-02T03:43:42.294Z,1.45
2022-09-02T03:46:10.061Z,1.48
2022-09-02T03:48:36.474Z,1.63
2022-09-02T03:51:02.881Z,2.10
2022-09-02T03:53:29.183Z,1.40
2022-09-02T03:55:55.436Z,1.70
2022-09-02T03:58:23.547Z,2.00
2022-09-02T04:00:54.234Z,1.58
2022-09-02T04:03:21.312Z,1.90
2022-09-02T04:05:48.241Z,2.08
2022-09-02T04:08:14.668Z,2.13
2022-09-02T04:10:41.117Z,1.80
2022-09-02T04:13:07.625Z,1.60
2022-09-02T04:15:34.071Z,1.70
2022-09-02T04:18:00.312Z,1.80
2022-09-02T04:20:26.596Z,2.05
2022-09-02T04:22:52.836Z,1.75
2022-09-02T04:25:19.157Z,1.85
2022-09-02T04:27:50.460Z,1.90
2022-09-02T04:30:17.072Z,1.90
2022-09-02T04:32:43.403Z,2.30
2022-09-02T04:35:09.894Z,1.80
2022-09-02T04:37:36.335Z,1.80
2022-09-02T04:40:02.817Z,2.33
2022-09-02T04:42:29.042Z,1.70
2022-09-02T04:44:58.065Z,1.73
2022-09-02T04:47:24.437Z,2.10
2022-09-02T04:49:50.964Z,2.10
2022-09-02T04:52:17.350Z,2.38
2022-09-02T04:54:43.575Z,2.08
2022-09-02T04:57:09.873Z,1.88
2022-09-02T04:59:36.622Z,1.98
2022-09-02T05:02:03.647Z,2.50
2022-09-02T05:04:31.574Z,2.03
2022-09-02T05:07:01.359Z,2.40
2022-09-02T05:09:28.372Z,1.70
2022-09-02T05:11:57.572Z,1.90
2022-09-02T05:14:27.389Z,2.05
2022-09-02T05:16:55.796Z,2.10
2022-09-02T05:19:23.305Z,1.80
2022-09-02T05:21:50.979Z,2.00
2022-09-02T05:24:17.778Z,2.28
2022-09-02T05:26:44.681Z,1.80
2022-09-02T05:29:12.254Z,2.08
2022-09-02T05:31:38.606Z,1.75
2022-09-02T05:34:04.884Z,1.80
2022-09-02T05:36:32.530Z,2.00
2022-09-02T05:38:59.695Z,1.80
2022-09-02T05:41:26.410Z,1.75
2022-09-02T05:43:55.041Z,1.85
2022-09-02T05:46:23.175Z,1.80
2022-09-02T05:49:08.692Z,1.80
2022-09-02T05:51:41.736Z,1.70
2022-09-02T05:54:10.250Z,1.83
2022-09-02T05:56:37.765Z,1.90
2022-09-02T05:59:04.052Z,1.67
2022-09-02T06:01:30.493Z,1.60
2022-09-02T06:03:58.015Z,1.88
2022-09-02T06:06:24.621Z,1.60
2022-09-02T06:08:50.957Z,1.55
2022-09-02T06:11:18.168Z,1.83
2022-09-02T06:13:44.852Z,1.52
2022-09-02T06:16:13.470Z,1.58
2022-09-02T06:18:40.334Z,1.63
2022-09-02T06:21:06.774Z,1.60
2022-09-02T06:23:37.999Z,1.80
2022-09-02T06:26:04.869Z,2.10
2022-09-02T06:28:31.266Z,1.77
2022-09-02T06:30:57.857Z,1.67
2022-09-02T06:33:24.397Z,1.67
2022-09-02T06:35:50.642Z,1.70
2022-09-02T06:38:17.120Z,1.65
2022-09-02T06:40:53.648Z,2.08
2022-09-02T06:43:20.122Z,1.67
2022-09-02T06:45:46.854Z,1.70
2022-09-02T06:48:13.768Z,1.70
2022-09-02T06:50:45.470Z,1.70
2022-09-02T06:53:12.278Z,1.55
2022-09-02T06:55:39.743Z,1.80
2022-09-02T06:58:06.130Z,1.60
2022-09-02T07:00:32.741Z,1.45
2022-09-02T07:03:17.701Z,1.65
2022-09-02T07:05:44.046Z,1.70
2022-09-02T07:08:10.408Z,1.73
2022-09-02T07:10:40.151Z,2.10
2022-09-02T07:13:07.447Z,1.65
2022-09-02T07:15:34.210Z,1.88
2022-09-02T07:18:00.886Z,1.95
2022-09-02T07:20:27.309Z,2.00
2022-09-02T07:22:54.683Z,1.88
2022-09-02T07:25:21.043Z,2.25
2022-09-02T07:27:47.310Z,1.83
2022-09-02T07:30:13.960Z,1.83
2022-09-02T07:32:40.221Z,1.80
2022-09-02T07:35:07.124Z,1.80
2022-09-02T07:37:34.723Z,1.75
2022-09-02T07:40:05.020Z,1.88
2022-09-02T07:42:31.401Z,1.90
2022-09-02T07:44:57.664Z,2.10
2022-09-02T07:47:23.998Z,2.03
2022-09-02T07:52:37.592Z,1.88
2022-09-02T07:55:04.322Z,1.88
2022-09-02T07:57:31.743Z,2.00
2022-09-02T07:59:57.996Z,2.08
2022-09-02T08:02:24.835Z,2.08
2022-09-02T08:04:51.139Z,2.00
2022-09-02T08:07:23.910Z,1.75
2022-09-02T08:09:51.276Z,2.05
2022-09-02T08:12:20.134Z,1.83
2022-09-02T08:14:48.417Z,1.73
2022-09-02T08:17:15.251Z,1.70
2022-09-02T08:19:41.643Z,1.90
2022-09-02T08:22:08.017Z,1.98
2022-09-02T08:24:34.304Z,1.80
2022-09-02T08:27:00.870Z,1.90
2022-09-02T08:29:27.214Z,2.10
2022-09-02T08:31:54.242Z,1.80
2022-09-02T08:34:23.274Z,1.70
2022-09-02T08:36:56.378Z,1.90
2022-09-02T08:39:25.734Z,2.10
2022-09-02T08:44:29.624Z,1.90
2022-09-02T08:46:59.108Z,1.90
2022-09-02T08:49:34.702Z,1.73
2022-09-02T08:52:03.120Z,1.70
2022-09-02T08:54:36.504Z,1.90
2022-09-02T08:57:03.247Z,2.00
2022-09-02T08:59:31.397Z,1.70
2022-09-02T09:02:17.700Z,1.90
2022-09-02T09:04:44.297Z,1.60
2022-09-02T09:07:16.772Z,1.48
2022-09-02T09:10:01.745Z,1.90
2022-09-02T09:12:27.973Z,1.70
2022-09-02T09:15:03.584Z,1.70
2022-09-02T09:17:37.309Z,1.90
2022-09-02T09:20:06.671Z,1.80
2022-09-02T09:22:37.241Z,1.80
2022-09-02T09:25:07.463Z,2.25
2022-09-02T09:27:33.857Z,1.70
2022-09-02T09:30:01.825Z,1.73
2022-09-02T09:32:29.934Z,1.67
2022-09-02T09:34:59.941Z,1.88
2022-09-02T09:37:36.079Z,1.77
2022-09-02T09:40:21.249Z,1.73
2022-09-02T09:42:50.032Z,1.63
2022-09-02T09:45:20.140Z,1.70
2022-09-02T09:48:07.307Z,1.95
2022-09-02T09:50:33.572Z,1.60
2022-09-02T09:53:15.204Z,1.70
2022-09-02T09:55:52.862Z,1.88
2022-09-02T09:58:19.814Z,1.80
2022-09-02T10:00:46.158Z,1.52
2022-09-02T10:03:20.718Z,1.70
2022-09-02T10:05:47.057Z,1.45
2022-09-02T10:08:16.028Z,1.75
2022-09-02T10:10:55.466Z,1.58
2022-09-02T10:13:32.299Z,1.42
2022-09-02T10:16:05.128Z,1.50
2022-09-02T10:18:34.533Z,1.77
2022-09-02T10:21:19.613Z,1.30
2022-09-02T10:24:01.118Z,1.77
2022-09-02T10:26:33.416Z,1.40
2022-09-02T10:29:07.027Z,1.70
2022-09-02T10:31:37.191Z,1.60
2022-09-02T10:34:03.758Z,1.60
2022-09-02T10:36:36.546Z,1.30
2022-09-02T10:39:25.852Z,1.40
2022-09-02T10:41:55.662Z,1.20
2022-09-02T10:44:26.553Z,1.30
2022-09-02T10:46:52.907Z,1.10
2022-09-02T10:49:23.981Z,1.10
2022-09-02T10:52:08.933Z,1.35
2022-09-02T10:54:50.565Z,1.50
2022-09-02T10:57:19.965Z,1.17
2022-09-02T10:59:46.211Z,1.20
2022-09-02T11:02:24.841Z,1.33
2022-09-02T11:04:54.950Z,1.33
2022-09-02T11:07:24.091Z,1.40
2022-09-02T11:09:54.459Z,1.30
2022-09-02T11:12:21.147Z,1.45
2022-09-02T11:14:56.206Z,1.20
2022-09-02T11:17:55.002Z,1.20
2022-09-02T11:20:36.315Z,1.20
2022-09-02T11:23:08.762Z,1.63
2022-09-02T11:25:53.796Z,1.30
2022-09-02T11:28:20.264Z,1.20
2022-09-02T11:33:29.474Z,1.17
2022-09-02T11:35:57.828Z,1.42
2022-09-02T11:38:27.472Z,1.40
2022-09-02T11:43:52.627Z,1.40
2022-09-02T11:46:37.793Z,1.27
2022-09-02T11:49:10.353Z,1.50
2022-09-02T11:51:47.315Z,1.52
2022-09-02T11:54:15.825Z,1.55
2022-09-02T11:56:45.528Z,1.35
2022-09-02T11:59:22.272Z,1.25
2022-09-02T12:01:53.238Z,1.40
2022-09-02T12:07:09.582Z,1.38
2022-09-02T12:09:42.412Z,1.48
2022-09-02T12:12:09.952Z,1.40
2022-09-02T12:14:36.211Z,1.20
2022-09-02T12:17:09.010Z,1.50
2022-09-02T12:19:38.171Z,1.55
2022-09-02T12:22:16.745Z,1.60
2022-09-02T12:24:56.437Z,1.20
2022-09-02T12:27:24.363Z,1.42
2022-09-02T12:29:52.162Z,1.60
2022-09-02T12:32:38.081Z,1.38
2022-09-02T12:35:08.941Z,1.27
2022-09-02T12:37:49.856Z,1.40
2022-09-02T12:40:19.883Z,1.40
2022-09-02T12:42:46.779Z,1.40
2022-09-02T12:45:26.851Z,1.33
2022-09-02T12:48:17.222Z,1.30
2022-09-02T12:50:54.293Z,1.40
2022-09-02T12:53:21.087Z,1.65
2022-09-02T12:55:54.169Z,1.50
2022-09-02T12:58:22.098Z,1.40
2022-09-02T13:00:56.530Z,1.50
2022-09-02T13:03:41.779Z,1.40
2022-09-02T13:06:12.303Z,1.38
2022-09-02T13:08:47.605Z,1.30
2022-09-02T13:11:32.781Z,1.30
2022-09-02T13:16:25.256Z,1.60
2022-09-02T13:18:54.499Z,1.75
2022-09-02T13:21:32.692Z,1.50
2022-09-02T13:24:18.123Z,1.45
2022-09-02T13:27:03.249Z,1.27
2022-09-02T13:32:01.052Z,1.30
2022-09-02T13:34:29.081Z,1.23
2022-09-02T13:36:55.387Z,2.00
2022-09-02T13:39:25.709Z,1.63
2022-09-02T13:41:52.398Z,1.30
2022-09-02T13:44:26.140Z,1.58
2022-09-02T13:46:54.106Z,1.77
2022-09-02T13:49:25.409Z,1.55
2022-09-02T13:51:53.013Z,1.23
2022-09-02T13:54:28.965Z,1.75
2022-09-02T13:56:56.068Z,1.60
2022-09-02T13:59:34.287Z,1.50
2022-09-02T14:02:00.725Z,1.50
2022-09-02T14:04:27.143Z,1.60
2022-09-02T14:06:54.419Z,1.67
2022-09-02T14:09:32.676Z,1.48
2022-09-02T14:12:00.117Z,1.30
2022-09-02T14:14:26.714Z,1.17
2022-09-02T14:17:13.066Z,1.50
2022-09-02T14:19:39.406Z,1.63
2022-09-02T14:22:05.748Z,1.50
2022-09-02T14:24:37.992Z,1.67
2022-09-02T14:27:11.450Z,1.40
2022-09-02T14:29:42.655Z,1.38
2022-09-02T14:32:12.579Z,1.33
2022-09-02T14:34:46.059Z,1.70
2022-09-02T14:37:30.821Z,1.50
2022-09-02T14:40:00.216Z,1.40
2022-09-02T14:42:29.321Z,1.27
2022-09-02T14:44:59.145Z,1.58
2022-09-02T14:47:27.595Z,1.23
2022-09-02T14:49:55.372Z,1.55
2022-09-02T14:52:29.507Z,1.40
2022-09-02T14:54:56.950Z,1.40
2022-09-02T14:57:33.093Z,1.48
2022-09-02T15:00:00.664Z,1.30
2022-09-02T15:02:26.909Z,1.60
2022-09-02T15:04:53.860Z,1.58
2022-09-02T15:07:20.376Z,1.52
2022-09-02T15:09:51.219Z,1.42
2022-09-02T15:12:20.262Z,1.48
2022-09-02T15:14:46.884Z,1.20
2022-09-02T15:17:15.369Z,1.50
2022-09-02T15:19:41.659Z,1.30
2022-09-02T15:22:07.942Z,1.55
2022-09-02T15:24:34.301Z,1.38
2022-09-02T15:27:00.571Z,1.75
2022-09-02T15:29:28.893Z,1.30
2022-09-02T15:31:55.429Z,1.50
2022-09-02T15:34:25.879Z,1.80
2022-09-02T15:36:55.123Z,1.45
2022-09-02T15:39:22.738Z,1.40
2022-09-02T15:41:49.981Z,1.65
2022-09-02T15:44:17.276Z,1.45
2022-09-02T15:46:44.485Z,1.48
2022-09-02T15:49:12.553Z,1.50
2022-09-02T15:51:39.174Z,1.45
2022-09-02T15:54:06.644Z,1.45
2022-09-02T15:56:33.862Z,1.65
2022-09-02T15:59:10.388Z,1.52
2022-09-02T16:01:38.530Z,1.50
2022-09-02T16:04:05.164Z,1.52
2022-09-02T16:06:32.917Z,1.92
2022-09-02T16:08:59.188Z,1.48
2022-09-02T16:11:25.496Z,1.30
2022-09-02T16:13:51.860Z,1.65
2022-09-02T16:16:18.306Z,1.60
2022-09-02T16:18:48.742Z,1.60
2022-09-02T16:21:14.963Z,1.42
2022-09-02T16:23:41.791Z,1.60
2022-09-02T16:26:08.093Z,1.45
2022-09-02T16:28:35.834Z,1.50
2022-09-02T16:31:02.182Z,1.77
2022-09-02T16:33:28.454Z,1.45
2022-09-02T16:35:54.802Z,1.20
2022-09-02T16:38:21.065Z,1.50
2022-09-02T16:40:51.251Z,1.45
2022-09-02T16:43:17.621Z,1.30
2022-09-02T16:45:45.933Z,1.38
2022-09-02T16:48:12.575Z,1.40
2022-09-02T16:50:38.847Z,1.35
2022-09-02T16:53:05.170Z,1.25
2022-09-02T16:55:31.440Z,1.50
2022-09-02T16:58:04.805Z,1.27
2022-09-02T17:00:31.076Z,1.30
2022-09-02T17:02:57.314Z,1.63
2022-09-02T17:05:23.575Z,1.10
2022-09-02T17:07:51.867Z,1.40
2022-09-02T17:10:18.145Z,1.30
2022-09-02T17:12:44.349Z,1.35
2022-09-02T17:15:10.583Z,1.13
2022-09-02T17:17:37.812Z,1.50
2022-09-02T17:20:04.129Z,1.17
2022-09-02T17:22:30.882Z,1.35
2022-09-02T17:24:59.624Z,1.30
2022-09-02T17:27:27.244Z,1.52
2022-09-02T17:29:54.511Z,1.40
2022-09-02T17:32:20.736Z,1.20
2022-09-02T17:34:48.505Z,1.42
2022-09-02T17:37:14.786Z,1.45
2022-09-02T17:39:41.170Z,1.38
2022-09-02T17:42:07.664Z,1.35
2022-09-02T17:44:39.291Z,1.50
2022-09-02T17:47:06.165Z,1.40
2022-09-02T17:49:36.536Z,1.38
2022-09-02T17:52:07.895Z,1.63
2022-09-02T17:54:35.055Z,1.33
2022-09-02T17:57:19.844Z,1.40
2022-09-02T18:00:01.163Z,1.77
2022-09-02T18:02:27.399Z,1.63
2022-09-02T18:05:05.994Z,1.67
2022-09-02T18:07:50.859Z,1.50
2022-09-02T18:10:17.206Z,1.65
2022-09-02T18:12:43.492Z,1.20
2022-09-02T18:15:15.245Z,1.52
2022-09-02T18:17:45.931Z,1.48
2022-09-02T18:20:13.434Z,1.20
2022-09-02T18:22:45.541Z,1.60
2022-09-02T18:25:11.821Z,1.48
2022-09-02T18:27:49.945Z,1.60
2022-09-02T18:30:25.576Z,1.50
2022-09-02T18:33:09.609Z,1.38
2022-09-02T18:35:35.834Z,1.45
2022-09-02T18:38:22.302Z,1.70
2022-09-02T18:40:54.882Z,1.45
2022-09-02T18:43:27.332Z,1.50
2022-09-02T18:45:56.349Z,1.30
2022-09-02T18:48:42.501Z,1.38
2022-09-02T18:51:18.781Z,1.60
2022-09-02T18:53:46.841Z,1.73
2022-09-02T18:56:13.333Z,1.75
2022-09-02T18:58:45.996Z,1.50
2022-09-02T19:01:21.444Z,1.58
2022-09-02T19:03:48.359Z,1.25
2022-09-02T19:06:19.180Z,1.13
2022-09-02T19:08:46.364Z,1.60
2022-09-02T19:11:14.657Z,1.65
2022-09-02T19:13:50.688Z,1.50
2022-09-02T19:16:18.872Z,1.40
2022-09-02T19:18:45.611Z,1.50
2022-09-02T19:21:14.063Z,1.52
2022-09-02T19:23:41.566Z,1.50
2022-09-02T19:26:08.172Z,1.60
2022-09-02T19:28:34.718Z,1.70
2022-09-02T19:31:01.904Z,1.40
2022-09-02T19:33:29.645Z,1.50
2022-09-02T19:35:59.126Z,1.90
2022-09-02T19:38:26.300Z,1.70
2022-09-02T19:40:53.228Z,1.30
2022-09-02T19:43:20.176Z,1.75
2022-09-02T19:45:51.093Z,1.70
2022-09-02T19:48:18.192Z,1.60
2022-09-02T19:50:45.789Z,1.50
2022-09-02T19:53:25.584Z,1.30
2022-09-02T19:55:51.830Z,1.50
2022-09-02T19:58:18.336Z,2.08
2022-09-02T20:00:44.695Z,1.40
2022-09-02T20:03:11.476Z,1.55
2022-09-02T20:05:40.217Z,1.50
2022-09-02T20:08:08.985Z,1.77
2022-09-02T20:10:37.031Z,1.55
2022-09-02T20:13:03.859Z,1.55
2022-09-02T20:15:30.215Z,1.65
2022-09-02T20:18:09.000Z,1.55
2022-09-02T20:20:35.372Z,1.70
2022-09-02T20:23:01.706Z,1.67
2022-09-02T20:25:33.140Z,1.20
2022-09-02T20:28:01.956Z,1.67
2022-09-02T20:30:30.902Z,1.80
2022-09-02T20:32:58.997Z,1.77
2022-09-02T20:35:43.195Z,1.60
2022-09-02T20:38:10.953Z,1.73
2022-09-02T20:40:46.165Z,1.60
2022-09-02T20:43:33.151Z,1.70
2022-09-02T20:46:06.072Z,1.35
2022-09-02T20:48:39.381Z,1.85
2022-09-02T20:51:10.635Z,1.98
2022-09-02T20:53:37.070Z,1.63
2022-09-02T20:56:08.011Z,1.60
2022-09-02T20:58:40.402Z,1.63
2022-09-02T21:01:08.251Z,1.90
2022-09-02T21:03:49.873Z,1.70
2022-09-02T21:06:16.794Z,1.98
2022-09-02T21:08:50.446Z,1.60
2022-09-02T21:11:19.650Z,1.77
2022-09-02T21:13:48.791Z,1.65
2022-09-02T21:16:20.947Z,1.50
2022-09-02T21:18:56.468Z,1.85
2022-09-02T21:21:25.530Z,2.00
2022-09-02T21:24:03.229Z,1.80
2022-09-02T21:26:51.399Z,1.85
2022-09-02T21:29:26.006Z,1.83
2022-09-02T21:31:55.668Z,1.80
2022-09-02T21:34:28.204Z,1.63
2022-09-02T21:36:57.726Z,1.98
2022-09-02T21:39:26.033Z,1.92
2022-09-02T21:41:58.099Z,2.08
2022-09-02T21:44:38.763Z,1.80
2022-09-02T21:47:19.315Z,1.60
2022-09-02T21:50:04.950Z,1.80
2022-09-02T21:52:34.305Z,1.80
2022-09-02T21:55:19.114Z,1.70
2022-09-02T21:57:59.265Z,1.92
2022-09-02T22:00:26.193Z,1.98
2022-09-02T22:02:58.433Z,2.17
2022-09-02T22:05:29.260Z,1.83
2022-09-02T22:08:11.854Z,1.90
2022-09-02T22:10:47.913Z,2.03
2022-09-02T22:13:14.280Z,1.83
2022-09-02T22:15:56.962Z,2.00
2022-09-02T22:18:28.500Z,1.70
2022-09-02T22:21:01.205Z,1.83
2022-09-02T22:23:29.489Z,1.80
2022-09-02T22:25:57.792Z,1.98
2022-09-02T22:28:35.116Z,1.77
2022-09-02T22:31:02.756Z,1.70
2022-09-02T22:33:31.418Z,1.60
2022-09-02T22:36:00.950Z,1.60
2022-09-02T22:38:33.224Z,2.05
2022-09-02T22:41:13.010Z,1.73
2022-09-02T22:43:42.210Z,1.70
2022-09-02T22:46:56.803Z,1.85
2022-09-02T22:49:49.006Z,1.92
2022-09-02T22:52:39.763Z,1.75
2022-09-02T22:55:11.527Z,1.70
2022-09-02T22:57:59.248Z,1.85
2022-09-02T23:00:27.652Z,1.60
2022-09-02T23:03:12.659Z,1.88
2022-09-02T23:05:51.890Z,2.00
2022-09-02T23:08:21.976Z,1.60
2022-09-02T23:10:57.263Z,1.60
2022-09-02T23:13:23.513Z,1.60
2022-09-02T23:15:58.919Z,1.50
2022-09-02T23:18:33.526Z,1.52
2022-09-02T23:20:59.809Z,1.70
2022-09-02T23:23:39.843Z,1.60
2022-09-02T23:26:09.597Z,1.70
2022-09-02T23:28:42.134Z,1.55
2022-09-02T23:31:30.361Z,1.70
2022-09-02T23:34:30.760Z,1.48
2022-09-02T23:36:59.799Z,1.75
2022-09-02T23:39:44.473Z,1.98
2022-09-02T23:42:12.098Z,1.80
2022-09-02T23:44:38.488Z,1.58
2022-09-02T23:47:04.738Z,1.75
2022-09-02T23:49:38.078Z,1.30
2022-09-02T23:52:09.521Z,1.50
2022-09-02T23:54:45.996Z,1.42
2022-09-02T23:57:17.288Z,2.17
2022-09-02T23:59:43.534Z,1.50
